NV24 weather

Emerus Heliport
North Las Vegas, Nevada, United States

Public forecast

Using degrees Fahrenheit for public forecast. Weather courtesy of forecast.io.

METAR (pilot weather report)

Closest report is North Las Vegas Airport, 2.3 nm (4.3 km) SW. Retrieved 2019/03/23 07:53 UTC (14 minutes ago):

KVGT 230753Z AUTO 00000KT 10SM CLR 12/01 A3006 RMK AO2 SLP190 T01220011 402000083

TAF (pilot weather forecast)

Closest forecast is North Las Vegas Airport, 2.3 nm (4.3 km) SW. Retrieved 2019/03/23 06:22 UTC (2 hours ago):

TAF KVGT 230520Z 2306/2406 VRB05KT P6SM FEW100 BKN200 FM232000 19012G22KT P6SM FEW100 SCT200 FM240300 26011KT P6SM FEW100